sensor_id;sensor_type;location;lat;lon;timestamp;pressure;altitude;pressure_sealevel;temperature;humidity
50672;BME280;46021;55.882;37.654;2023-07-09T00:02:15;99263.44;;;14.41;73.46
50672;BME280;46021;55.882;37.654;2023-07-09T00:04:43;99263.44;;;14.41;73.42
50672;BME280;46021;55.882;37.654;2023-07-09T00:07:17;99260.03;;;14.39;73.38
50672;BME280;46021;55.882;37.654;2023-07-09T00:09:45;99266.19;;;14.38;73.87
50672;BME280;46021;55.882;37.654;2023-07-09T00:12:14;99262.81;;;14.36;73.92
50672;BME280;46021;55.882;37.654;2023-07-09T00:14:41;99258.53;;;14.35;73.87
50672;BME280;46021;55.882;37.654;2023-07-09T00:17:12;99261.31;;;14.32;74.03
50672;BME280;46021;55.882;37.654;2023-07-09T00:19:39;99265.78;;;14.30;74.24
50672;BME280;46021;55.882;37.654;2023-07-09T00:22:14;99257.06;;;14.30;74.05
50672;BME280;46021;55.882;37.654;2023-07-09T00:24:43;99253.00;;;14.24;74.11
50672;BME280;46021;55.882;37.654;2023-07-09T00:27:12;99261.72;;;14.24;74.14
50672;BME280;46021;55.882;37.654;2023-07-09T00:29:40;99256.72;;;14.20;74.26
50672;BME280;46021;55.882;37.654;2023-07-09T00:32:15;99248.09;;;14.18;74.44
50672;BME280;46021;55.882;37.654;2023-07-09T00:34:43;99242.88;;;14.18;74.40
50672;BME280;46021;55.882;37.654;2023-07-09T00:37:15;99248.09;;;14.18;74.38
50672;BME280;46021;55.882;37.654;2023-07-09T00:39:43;99242.00;;;14.17;74.49
50672;BME280;46021;55.882;37.654;2023-07-09T00:42:12;99242.34;;;14.11;74.59
50672;BME280;46021;55.882;37.654;2023-07-09T00:44:44;99246.88;;;14.08;74.67
50672;BME280;46021;55.882;37.654;2023-07-09T00:47:21;99246.19;;;14.04;74.57
50672;BME280;46021;55.882;37.654;2023-07-09T00:50:11;99247.06;;;14.04;75.43
50672;BME280;46021;55.882;37.654;2023-07-09T00:52:42;99238.41;;;14.02;74.91
50672;BME280;46021;55.882;37.654;2023-07-09T00:55:15;99233.16;;;14.02;75.04
50672;BME280;46021;55.882;37.654;2023-07-09T00:57:48;99233.09;;;14.04;75.03
50672;BME280;46021;55.882;37.654;2023-07-09T01:00:25;99233.84;;;14.06;74.74
50672;BME280;46021;55.882;37.654;2023-07-09T01:02:56;99225.09;;;14.07;74.72
50672;BME280;46021;55.882;37.654;2023-07-09T01:05:24;99219.00;;;14.07;74.71
50672;BME280;46021;55.882;37.654;2023-07-09T01:07:52;99223.31;;;14.08;74.67
50672;BME280;46021;55.882;37.654;2023-07-09T01:10:19;99215.44;;;14.08;74.69
50672;BME280;46021;55.882;37.654;2023-07-09T01:12:47;99212.91;;;14.06;74.83
50672;BME280;46021;55.882;37.654;2023-07-09T01:15:17;99212.91;;;14.06;75.27
50672;BME280;46021;55.882;37.654;2023-07-09T01:17:44;99219.00;;;14.07;75.22
50672;BME280;46021;55.882;37.654;2023-07-09T01:20:18;99213.84;;;14.05;75.24
50672;BME280;46021;55.882;37.654;2023-07-09T01:22:50;99218.25;;;14.04;75.00
50672;BME280;46021;55.882;37.654;2023-07-09T01:25:21;99215.63;;;14.04;75.31
50672;BME280;46021;55.882;37.654;2023-07-09T01:27:48;99213.75;;;14.07;75.02
50672;BME280;46021;55.882;37.654;2023-07-09T01:30:18;99220.69;;;14.08;74.96
50672;BME280;46021;55.882;37.654;2023-07-09T01:32:49;99214.53;;;14.09;74.83
50672;BME280;46021;55.882;37.654;2023-07-09T01:35:18;99208.34;;;14.10;75.46
50672;BME280;46021;55.882;37.654;2023-07-09T01:37:46;99213.44;;;14.13;74.87
50672;BME280;46021;55.882;37.654;2023-07-09T01:40:18;99218.50;;;14.16;74.90
50672;BME280;46021;55.882;37.654;2023-07-09T01:42:46;99220.19;;;14.17;74.99
50672;BME280;46021;55.882;37.654;2023-07-09T01:45:14;99223.56;;;14.19;74.85
50672;BME280;46021;55.882;37.654;2023-07-09T01:50:10;99212.75;;;14.25;74.69
50672;BME280;46021;55.882;37.654;2023-07-09T01:52:40;99221.38;;;14.27;74.56
50672;BME280;46021;55.882;37.654;2023-07-09T01:55:10;99217.75;;;14.30;74.78
50672;BME280;46021;55.882;37.654;2023-07-09T01:57:38;99217.69;;;14.31;74.54
50672;BME280;46021;55.882;37.654;2023-07-09T02:00:10;99218.25;;;14.36;74.66
50672;BME280;46021;55.882;37.654;2023-07-09T02:02:44;99210.91;;;14.43;74.91
50672;BME280;46021;55.882;37.654;2023-07-09T02:05:15;99216.41;;;14.54;74.83
50672;BME280;46021;55.882;37.654;2023-07-09T02:07:45;99206.09;;;14.67;74.40
50672;BME280;46021;55.882;37.654;2023-07-09T02:10:14;99210.19;;;14.87;74.39
50672;BME280;46021;55.882;37.654;2023-07-09T02:12:44;99208.31;;;15.05;73.92
50672;BME280;46021;55.882;37.654;2023-07-09T02:15:12;99207.34;;;15.22;73.21
50672;BME280;46021;55.882;37.654;2023-07-09T02:17:39;99206.34;;;15.39;72.75
50672;BME280;46021;55.882;37.654;2023-07-09T02:20:08;99200.16;;;15.54;72.63
50672;BME280;46021;55.882;37.654;2023-07-09T02:22:37;99211.63;;;15.68;71.54
50672;BME280;46021;55.882;37.654;2023-07-09T02:25:05;99205.63;;;15.80;71.78
50672;BME280;46021;55.882;37.654;2023-07-09T02:30:09;99207.53;;;16.07;71.03
50672;BME280;46021;55.882;37.654;2023-07-09T02:32:37;99204.03;;;16.21;70.62
50672;BME280;46021;55.882;37.654;2023-07-09T02:35:05;99210.22;;;16.34;69.98
50672;BME280;46021;55.882;37.654;2023-07-09T02:37:32;99205.19;;;16.44;70.33
50672;BME280;46021;55.882;37.654;2023-07-09T02:40:00;99208.00;;;16.55;70.06
50672;BME280;46021;55.882;37.654;2023-07-09T02:42:30;99203.81;;;16.65;69.91
50672;BME280;46021;55.882;37.654;2023-07-09T02:44:58;99200.41;;;16.77;68.89
50672;BME280;46021;55.882;37.654;2023-07-09T02:47:28;99204.44;;;16.83;69.08
50672;BME280;46021;55.882;37.654;2023-07-09T02:49:57;99202.38;;;16.88;69.12
50672;BME280;46021;55.882;37.654;2023-07-09T02:52:24;99212.41;;;16.96;68.69
50672;BME280;46021;55.882;37.654;2023-07-09T02:54:52;99199.41;;;16.93;68.87
50672;BME280;46021;55.882;37.654;2023-07-09T02:57:19;99207.78;;;17.00;68.74
50672;BME280;46021;55.882;37.654;2023-07-09T02:59:46;99212.31;;;17.10;68.63
50672;BME280;46021;55.882;37.654;2023-07-09T03:02:13;99202.53;;;17.25;68.69
50672;BME280;46021;55.882;37.654;2023-07-09T03:04:42;99189.31;;;17.52;68.33
50672;BME280;46021;55.882;37.654;2023-07-09T03:07:09;99192.69;;;17.93;68.61
50672;BME280;46021;55.882;37.654;2023-07-09T03:09:36;99194.06;;;18.36;68.52
50672;BME280;46021;55.882;37.654;2023-07-09T03:12:05;99191.56;;;18.82;67.44
50672;BME280;46021;55.882;37.654;2023-07-09T03:14:32;99190.06;;;19.26;66.86
50672;BME280;46021;55.882;37.654;2023-07-09T03:16:59;99190.25;;;19.70;65.03
50672;BME280;46021;55.882;37.654;2023-07-09T03:19:26;99193.88;;;20.14;66.41
50672;BME280;46021;55.882;37.654;2023-07-09T03:21:55;99191.66;;;20.53;64.84
50672;BME280;46021;55.882;37.654;2023-07-09T03:24:22;99180.06;;;20.98;64.58
50672;BME280;46021;55.882;37.654;2023-07-09T03:26:49;99181.16;;;21.49;64.14
50672;BME280;46021;55.882;37.654;2023-07-09T03:29:16;99179.84;;;21.95;62.12
50672;BME280;46021;55.882;37.654;2023-07-09T03:31:43;99181.66;;;22.35;60.21
50672;BME280;46021;55.882;37.654;2023-07-09T03:34:11;99174.16;;;22.60;58.83
50672;BME280;46021;55.882;37.654;2023-07-09T03:36:38;99174.16;;;22.89;54.58
50672;BME280;46021;55.882;37.654;2023-07-09T03:39:06;99167.75;;;23.11;56.89
50672;BME280;46021;55.882;37.654;2023-07-09T03:41:34;99166.06;;;23.29;55.71
50672;BME280;46021;55.882;37.654;2023-07-09T03:44:01;99173.88;;;23.41;54.83
50672;BME280;46021;55.882;37.654;2023-07-09T03:46:28;99165.72;;;23.52;54.11
50672;BME280;46021;55.882;37.654;2023-07-09T03:48:58;99173.53;;;23.63;52.36
50672;BME280;46021;55.882;37.654;2023-07-09T03:51:26;99178.13;;;23.81;52.62
50672;BME280;46021;55.882;37.654;2023-07-09T03:53:53;99175.66;;;23.97;51.67
50672;BME280;46021;55.882;37.654;2023-07-09T03:56:21;99176.94;;;24.21;50.30
50672;BME280;46021;55.882;37.654;2023-07-09T03:58:49;99179.84;;;24.27;51.34
50672;BME280;46021;55.882;37.654;2023-07-09T04:01:15;99171.00;;;24.27;49.43
50672;BME280;46021;55.882;37.654;2023-07-09T04:03:43;99179.59;;;24.21;50.35
50672;BME280;46021;55.882;37.654;2023-07-09T04:06:09;99173.19;;;24.13;49.21
50672;BME280;46021;55.882;37.654;2023-07-09T04:08:36;99175.81;;;23.96;50.07
50672;BME280;46021;55.882;37.654;2023-07-09T04:11:05;99173.75;;;23.80;48.66
50672;BME280;46021;55.882;37.654;2023-07-09T04:13:33;99172.59;;;23.45;49.84
50672;BME280;46021;55.882;37.654;2023-07-09T04:16:00;99172.78;;;23.14;50.02
50672;BME280;46021;55.882;37.654;2023-07-09T04:18:27;99181.72;;;22.93;50.54
50672;BME280;46021;55.882;37.654;2023-07-09T04:20:55;99185.50;;;23.01;51.10
50672;BME280;46021;55.882;37.654;2023-07-09T04:23:22;99182.84;;;23.30;50.80
50672;BME280;46021;55.882;37.654;2023-07-09T04:25:49;99166.38;;;23.64;50.80
50672;BME280;46021;55.882;37.654;2023-07-09T04:28:16;99175.75;;;24.05;49.66
50672;BME280;46021;55.882;37.654;2023-07-09T04:30:49;99177.97;;;24.38;47.41
50672;BME280;46021;55.882;37.654;2023-07-09T04:33:18;99174.75;;;24.62;48.06
50672;BME280;46021;55.882;37.654;2023-07-09T04:35:45;99172.69;;;24.92;47.89
50672;BME280;46021;55.882;37.654;2023-07-09T04:38:13;99170.59;;;25.39;47.62
50672;BME280;46021;55.882;37.654;2023-07-09T04:43:08;99164.31;;;26.68;45.75
50672;BME280;46021;55.882;37.654;2023-07-09T04:45:36;99165.50;;;27.15;44.17
50672;BME280;46021;55.882;37.654;2023-07-09T04:48:05;99157.41;;;27.56;42.46
50672;BME280;46021;55.882;37.654;2023-07-09T04:50:32;99156.38;;;27.73;42.32
50672;BME280;46021;55.882;37.654;2023-07-09T04:53:00;99158.03;;;28.22;42.12
50672;BME280;46021;55.882;37.654;2023-07-09T04:55:27;99153.13;;;28.65;41.24
50672;BME280;46021;55.882;37.654;2023-07-09T04:57:54;99149.78;;;29.24;40.65
50672;BME280;46021;55.882;37.654;2023-07-09T05:00:21;99138.38;;;29.75;39.38
50672;BME280;46021;55.882;37.654;2023-07-09T05:02:49;99136.84;;;30.17;38.48
50672;BME280;46021;55.882;37.654;2023-07-09T05:05:17;99139.06;;;30.28;36.37
50672;BME280;46021;55.882;37.654;2023-07-09T05:07:44;99127.69;;;30.11;35.67
50672;BME280;46021;55.882;37.654;2023-07-09T05:10:12;99130.69;;;29.87;36.47
50672;BME280;46021;55.882;37.654;2023-07-09T05:12:48;99126.00;;;30.10;36.06
50672;BME280;46021;55.882;37.654;2023-07-09T05:15:16;99140.41;;;30.39;36.18
50672;BME280;46021;55.882;37.654;2023-07-09T05:17:44;99131.34;;;30.40;34.91
50672;BME280;46021;55.882;37.654;2023-07-09T05:20:11;99138.22;;;30.64;34.82
50672;BME280;46021;55.882;37.654;2023-07-09T05:22:40;99132.38;;;30.82;34.29
50672;BME280;46021;55.882;37.654;2023-07-09T05:25:08;99129.66;;;30.24;32.45
50672;BME280;46021;55.882;37.654;2023-07-09T05:27:35;99132.00;;;29.91;32.23
50672;BME280;46021;55.882;37.654;2023-07-09T05:30:03;99127.91;;;29.95;33.34
50672;BME280;46021;55.882;37.654;2023-07-09T05:32:33;99128.94;;;30.30;33.21
50672;BME280;46021;55.882;37.654;2023-07-09T05:35:00;99121.81;;;30.59;33.32
50672;BME280;46021;55.882;37.654;2023-07-09T05:37:30;99116.59;;;31.01;33.44
50672;BME280;46021;55.882;37.654;2023-07-09T05:39:58;99114.78;;;31.36;32.79
50672;BME280;46021;55.882;37.654;2023-07-09T05:42:25;99120.00;;;31.44;31.80
50672;BME280;46021;55.882;37.654;2023-07-09T05:44:52;99126.66;;;31.14;31.45
50672;BME280;46021;55.882;37.654;2023-07-09T05:47:20;99130.31;;;30.41;31.56
50672;BME280;46021;55.882;37.654;2023-07-09T05:49:47;99130.31;;;29.90;32.40
50672;BME280;46021;55.882;37.654;2023-07-09T05:52:16;99137.25;;;29.84;32.93
50672;BME280;46021;55.882;37.654;2023-07-09T05:54:43;99120.72;;;30.17;33.16
50672;BME280;46021;55.882;37.654;2023-07-09T05:57:12;99125.31;;;31.03;32.54
50672;BME280;46021;55.882;37.654;2023-07-09T05:59:39;99119.78;;;31.39;28.88
50672;BME280;46021;55.882;37.654;2023-07-09T06:02:10;99115.84;;;30.27;29.61
50672;BME280;46021;55.882;37.654;2023-07-09T06:04:38;99120.72;;;30.17;31.01
50672;BME280;46021;55.882;37.654;2023-07-09T06:07:05;99111.69;;;30.61;31.64
50672;BME280;46021;55.882;37.654;2023-07-09T06:09:33;99119.69;;;31.26;31.21
50672;BME280;46021;55.882;37.654;2023-07-09T06:12:00;99120.00;;;31.79;30.40
50672;BME280;46021;55.882;37.654;2023-07-09T06:14:29;99117.50;;;31.71;30.09
50672;BME280;46021;55.882;37.654;2023-07-09T06:16:57;99112.41;;;31.48;30.54
50672;BME280;46021;55.882;37.654;2023-07-09T06:19:25;99118.81;;;31.19;30.67
50672;BME280;46021;55.882;37.654;2023-07-09T06:21:52;99112.44;;;30.98;30.65
50672;BME280;46021;55.882;37.654;2023-07-09T06:24:19;99112.84;;;30.95;30.82
50672;BME280;46021;55.882;37.654;2023-07-09T06:26:46;99102.75;;;30.82;30.50
50672;BME280;46021;55.882;37.654;2023-07-09T06:29:13;99116.63;;;30.36;29.97
50672;BME280;46021;55.882;37.654;2023-07-09T06:31:42;99109.09;;;29.50;30.60
50672;BME280;46021;55.882;37.654;2023-07-09T06:34:09;99113.03;;;28.41;31.30
50672;BME280;46021;55.882;37.654;2023-07-09T06:36:36;99107.25;;;27.50;32.44
50672;BME280;46021;55.882;37.654;2023-07-09T06:39:04;99111.16;;;26.90;33.31
50672;BME280;46021;55.882;37.654;2023-07-09T06:41:31;99105.44;;;26.52;34.18
50672;BME280;46021;55.882;37.654;2023-07-09T06:44:04;99110.53;;;26.12;34.72
50672;BME280;46021;55.882;37.654;2023-07-09T06:46:32;99103.66;;;25.33;35.23
50672;BME280;46021;55.882;37.654;2023-07-09T06:49:00;99102.31;;;24.84;35.59
50672;BME280;46021;55.882;37.654;2023-07-09T06:51:28;99106.91;;;24.56;35.90
50672;BME280;46021;55.882;37.654;2023-07-09T06:53:55;99107.97;;;24.18;35.97
50672;BME280;46021;55.882;37.654;2023-07-09T06:56:22;99090.50;;;23.60;37.14
50672;BME280;46021;55.882;37.654;2023-07-09T06:58:49;99100.50;;;23.38;37.82
50672;BME280;46021;55.882;37.654;2023-07-09T07:01:16;99089.94;;;23.19;38.41
50672;BME280;46021;55.882;37.654;2023-07-09T07:03:43;99093.31;;;22.91;38.42
50672;BME280;46021;55.882;37.654;2023-07-09T07:06:11;99095.81;;;22.93;38.31
50672;BME280;46021;55.882;37.654;2023-07-09T07:08:39;99083.25;;;22.95;38.26
50672;BME280;46021;55.882;37.654;2023-07-09T07:11:06;99082.00;;;22.60;39.80
50672;BME280;46021;55.882;37.654;2023-07-09T07:13:35;99083.53;;;22.63;39.51
50672;BME280;46021;55.882;37.654;2023-07-09T07:16:02;99069.72;;;22.69;39.60
50672;BME280;46021;55.882;37.654;2023-07-09T07:18:30;99069.13;;;22.75;39.41
50672;BME280;46021;55.882;37.654;2023-07-09T07:20:57;99066.59;;;22.83;39.13
50672;BME280;46021;55.882;37.654;2023-07-09T07:23:25;99070.97;;;22.74;39.16
50672;BME280;46021;55.882;37.654;2023-07-09T07:25:53;99066.75;;;22.72;39.45
50672;BME280;46021;55.882;37.654;2023-07-09T07:28:20;99079.34;;;22.70;39.64
50672;BME280;46021;55.882;37.654;2023-07-09T07:30:57;99076.56;;;22.71;39.75
50672;BME280;46021;55.882;37.654;2023-07-09T07:33:25;99081.59;;;22.65;39.83
50672;BME280;46021;55.882;37.654;2023-07-09T07:35:52;99072.38;;;22.69;39.88
50672;BME280;46021;55.882;37.654;2023-07-09T07:38:19;99074.88;;;22.80;39.60
50672;BME280;46021;55.882;37.654;2023-07-09T07:40:48;99065.38;;;22.68;39.51
50672;BME280;46021;55.882;37.654;2023-07-09T07:43:15;99071.53;;;22.78;39.66
50672;BME280;46021;55.882;37.654;2023-07-09T07:45:43;99063.38;;;22.80;39.87
50672;BME280;46021;55.882;37.654;2023-07-09T07:48:10;99059.50;;;22.84;39.66
50672;BME280;46021;55.882;37.654;2023-07-09T07:50:38;99068.72;;;22.60;38.61
50672;BME280;46021;55.882;37.654;2023-07-09T07:53:06;99065.09;;;22.71;38.73
50672;BME280;46021;55.882;37.654;2023-07-09T07:55:35;99069.56;;;22.61;38.70
50672;BME280;46021;55.882;37.654;2023-07-09T07:58:04;99058.09;;;22.70;38.86
50672;BME280;46021;55.882;37.654;2023-07-09T08:00:32;99053.03;;;22.86;39.25
50672;BME280;46021;55.882;37.654;2023-07-09T08:02:59;99057.19;;;22.98;38.55
50672;BME280;46021;55.882;37.654;2023-07-09T08:05:26;99050.50;;;23.14;38.65
50672;BME280;46021;55.882;37.654;2023-07-09T08:07:54;99045.38;;;23.30;38.78
50672;BME280;46021;55.882;37.654;2023-07-09T08:10:21;99044.50;;;23.40;38.48
50672;BME280;46021;55.882;37.654;2023-07-09T08:12:48;99047.22;;;23.58;38.58
50672;BME280;46021;55.882;37.654;2023-07-09T08:15:17;99038.19;;;23.68;38.82
50672;BME280;46021;55.882;37.654;2023-07-09T08:17:45;99035.25;;;23.71;38.41
50672;BME280;46021;55.882;37.654;2023-07-09T08:20:12;99036.75;;;23.84;38.45
50672;BME280;46021;55.882;37.654;2023-07-09T08:22:40;99030.84;;;23.90;38.08
50672;BME280;46021;55.882;37.654;2023-07-09T08:25:08;99033.47;;;23.62;38.29
50672;BME280;46021;55.882;37.654;2023-07-09T08:27:35;99037.31;;;23.78;38.42
50672;BME280;46021;55.882;37.654;2023-07-09T08:30:02;99040.47;;;23.91;37.48
50672;BME280;46021;55.882;37.654;2023-07-09T08:32:32;99034.34;;;24.08;38.34
50672;BME280;46021;55.882;37.654;2023-07-09T08:35:00;99027.72;;;24.30;38.11
50672;BME280;46021;55.882;37.654;2023-07-09T08:37:30;99042.34;;;24.44;37.57
50672;BME280;46021;55.882;37.654;2023-07-09T08:39:58;99029.38;;;24.13;37.52
50672;BME280;46021;55.882;37.654;2023-07-09T08:42:29;99033.28;;;24.37;37.74
50672;BME280;46021;55.882;37.654;2023-07-09T08:45:07;99021.38;;;24.49;37.85
50672;BME280;46021;55.882;37.654;2023-07-09T08:47:47;99028.84;;;24.46;37.23
50672;BME280;46021;55.882;37.654;2023-07-09T08:50:20;99016.16;;;24.40;37.48
50672;BME280;46021;55.882;37.654;2023-07-09T08:52:49;99025.44;;;24.18;37.09
50672;BME280;46021;55.882;37.654;2023-07-09T08:55:19;99014.63;;;24.01;37.46
50672;BME280;46021;55.882;37.654;2023-07-09T08:57:49;99015.00;;;24.42;38.76
50672;BME280;46021;55.882;37.654;2023-07-09T09:00:21;99007.47;;;25.77;38.03
50672;BME280;46021;55.882;37.654;2023-07-09T09:02:52;99002.84;;;27.50;36.02
50672;BME280;46021;55.882;37.654;2023-07-09T09:05:24;98997.88;;;29.45;33.94
50672;BME280;46021;55.882;37.654;2023-07-09T09:07:55;98990.81;;;31.23;31.44
50672;BME280;46021;55.882;37.654;2023-07-09T09:10:30;98985.09;;;31.39;27.10
50672;BME280;46021;55.882;37.654;2023-07-09T09:13:05;98987.72;;;31.61;26.23
50672;BME280;46021;55.882;37.654;2023-07-09T09:15:37;98975.84;;;32.37;27.32
50672;BME280;46021;55.882;37.654;2023-07-09T09:18:22;98971.47;;;33.48;26.85
50672;BME280;46021;55.882;37.654;2023-07-09T09:20:55;98980.31;;;34.64;26.56
50672;BME280;46021;55.882;37.654;2023-07-09T09:23:30;98965.06;;;35.62;24.00
50672;BME280;46021;55.882;37.654;2023-07-09T09:26:05;98966.72;;;36.47;23.70
50672;BME280;46021;55.882;37.654;2023-07-09T09:28:36;98967.03;;;36.27;23.06
50672;BME280;46021;55.882;37.654;2023-07-09T09:31:03;98957.13;;;35.11;22.12
50672;BME280;46021;55.882;37.654;2023-07-09T09:33:40;98970.78;;;31.94;23.61
50672;BME280;46021;55.882;37.654;2023-07-09T09:36:14;98958.56;;;31.29;25.17
50672;BME280;46021;55.882;37.654;2023-07-09T09:38:42;98966.44;;;30.68;26.12
50672;BME280;46021;55.882;37.654;2023-07-09T09:41:13;98962.19;;;31.08;26.05
50672;BME280;46021;55.882;37.654;2023-07-09T09:43:42;98973.44;;;31.74;26.84
50672;BME280;46021;55.882;37.654;2023-07-09T09:46:19;98958.09;;;33.08;25.07
50672;BME280;46021;55.882;37.654;2023-07-09T09:48:49;98955.41;;;34.30;24.56
50672;BME280;46021;55.882;37.654;2023-07-09T09:51:18;98959.50;;;34.57;24.10
50672;BME280;46021;55.882;37.654;2023-07-09T09:53:48;98943.38;;;35.31;23.07
50672;BME280;46021;55.882;37.654;2023-07-09T09:56:18;98947.69;;;35.51;22.95
50672;BME280;46021;55.882;37.654;2023-07-09T09:58:46;98944.03;;;35.76;22.95
50672;BME280;46021;55.882;37.654;2023-07-09T10:01:15;98950.38;;;35.69;22.60
50672;BME280;46021;55.882;37.654;2023-07-09T10:03:43;98951.97;;;36.01;23.22
50672;BME280;46021;55.882;37.654;2023-07-09T10:06:16;98953.22;;;36.17;22.73
50672;BME280;46021;55.882;37.654;2023-07-09T10:08:52;98944.41;;;36.57;22.07
50672;BME280;46021;55.882;37.654;2023-07-09T10:11:28;98952.88;;;34.97;22.50
50672;BME280;46021;55.882;37.654;2023-07-09T10:14:00;98951.34;;;35.26;23.52
50672;BME280;46021;55.882;37.654;2023-07-09T10:16:34;98935.53;;;35.23;22.53
50672;BME280;46021;55.882;37.654;2023-07-09T10:19:12;98939.56;;;33.76;23.90
50672;BME280;46021;55.882;37.654;2023-07-09T10:21:47;98936.94;;;34.70;23.35
50672;BME280;46021;55.882;37.654;2023-07-09T10:24:33;98940.94;;;35.05;22.04
50672;BME280;46021;55.882;37.654;2023-07-09T10:27:18;98946.38;;;35.53;22.73
50672;BME280;46021;55.882;37.654;2023-07-09T10:30:12;98936.84;;;35.51;21.87
50672;BME280;46021;55.882;37.654;2023-07-09T10:32:53;98927.31;;;35.79;22.15
50672;BME280;46021;55.882;37.654;2023-07-09T10:35:31;98924.34;;;35.50;22.56
50672;BME280;46021;55.882;37.654;2023-07-09T10:38:18;98928.38;;;35.29;22.59
50672;BME280;46021;55.882;37.654;2023-07-09T10:40:52;98936.28;;;34.50;22.79
50672;BME280;46021;55.882;37.654;2023-07-09T10:43:25;98930.91;;;33.16;23.79
50672;BME280;46021;55.882;37.654;2023-07-09T10:45:59;98932.41;;;31.98;24.39
50672;BME280;46021;55.882;37.654;2023-07-09T10:48:34;98936.97;;;31.23;25.24
50672;BME280;46021;55.882;37.654;2023-07-09T10:51:02;98924.25;;;30.68;25.97
50672;BME280;46021;55.882;37.654;2023-07-09T10:53:35;98921.16;;;30.37;26.13
50672;BME280;46021;55.882;37.654;2023-07-09T10:56:09;98920.69;;;30.61;26.73
50672;BME280;46021;55.882;37.654;2023-07-09T10:58:41;98922.91;;;31.27;26.62
50672;BME280;46021;55.882;37.654;2023-07-09T11:01:12;98922.66;;;31.71;26.04
50672;BME280;46021;55.882;37.654;2023-07-09T11:03:44;98925.56;;;31.69;25.75
50672;BME280;46021;55.882;37.654;2023-07-09T11:06:26;98922.25;;;31.80;25.98
50672;BME280;46021;55.882;37.654;2023-07-09T11:08:58;98920.63;;;32.06;25.91
50672;BME280;46021;55.882;37.654;2023-07-09T11:11:32;98913.56;;;32.45;25.29
50672;BME280;46021;55.882;37.654;2023-07-09T11:14:04;98913.72;;;32.90;25.08
50672;BME280;46021;55.882;37.654;2023-07-09T11:16:39;98916.72;;;33.27;24.92
50672;BME280;46021;55.882;37.654;2023-07-09T11:19:16;98893.44;;;33.33;24.69
50672;BME280;46021;55.882;37.654;2023-07-09T11:21:58;98903.16;;;33.72;24.04
50672;BME280;46021;55.882;37.654;2023-07-09T11:24:36;98904.31;;;33.90;23.50
50672;BME280;46021;55.882;37.654;2023-07-09T11:27:16;98890.63;;;33.85;23.51
50672;BME280;46021;55.882;37.654;2023-07-09T11:29:48;98892.41;;;33.59;23.59
50672;BME280;46021;55.882;37.654;2023-07-09T11:32:20;98895.28;;;32.74;24.50
50672;BME280;46021;55.882;37.654;2023-07-09T11:34:48;98897.19;;;32.60;24.67
50672;BME280;46021;55.882;37.654;2023-07-09T11:37:16;98893.25;;;32.36;24.76
50672;BME280;46021;55.882;37.654;2023-07-09T11:39:48;98882.47;;;32.29;24.34
50672;BME280;46021;55.882;37.654;2023-07-09T11:42:28;98886.19;;;32.61;24.24
50672;BME280;46021;55.882;37.654;2023-07-09T11:45:00;98876.84;;;32.51;23.90
50672;BME280;46021;55.882;37.654;2023-07-09T11:47:33;98892.78;;;32.79;24.63
50672;BME280;46021;55.882;37.654;2023-07-09T11:50:05;98898.59;;;31.07;26.29
50672;BME280;46021;55.882;37.654;2023-07-09T11:52:40;98888.09;;;31.26;26.20
50672;BME280;46021;55.882;37.654;2023-07-09T11:55:21;98885.41;;;29.35;28.66
50672;BME280;46021;55.882;37.654;2023-07-09T11:57:53;98885.97;;;29.45;28.68
50672;BME280;46021;55.882;37.654;2023-07-09T12:00:20;98885.78;;;29.68;28.79
50672;BME280;46021;55.882;37.654;2023-07-09T12:02:48;98875.00;;;28.36;30.12
50672;BME280;46021;55.882;37.654;2023-07-09T12:05:19;98883.41;;;28.48;29.98
50672;BME280;46021;55.882;37.654;2023-07-09T12:07:48;98875.06;;;28.13;29.90
50672;BME280;46021;55.882;37.654;2023-07-09T12:10:21;98887.38;;;27.76;30.36
50672;BME280;46021;55.882;37.654;2023-07-09T12:12:53;98888.53;;;27.58;30.54
50672;BME280;46021;55.882;37.654;2023-07-09T12:15:23;98894.56;;;27.52;30.45
50672;BME280;46021;55.882;37.654;2023-07-09T12:17:55;98891.22;;;27.27;30.95
50672;BME280;46021;55.882;37.654;2023-07-09T12:20:23;98895.66;;;27.03;31.33
50672;BME280;46021;55.882;37.654;2023-07-09T12:22:50;98899.53;;;26.93;31.62
50672;BME280;46021;55.882;37.654;2023-07-09T12:25:20;98895.41;;;26.82;32.12
50672;BME280;46021;55.882;37.654;2023-07-09T12:27:48;98893.13;;;26.62;32.35
50672;BME280;46021;55.882;37.654;2023-07-09T12:30:16;98889.84;;;26.11;33.23
50672;BME280;46021;55.882;37.654;2023-07-09T12:32:44;98883.16;;;25.91;33.23
50672;BME280;46021;55.882;37.654;2023-07-09T12:35:13;98882.66;;;25.95;33.08
50672;BME280;46021;55.882;37.654;2023-07-09T12:37:42;98880.50;;;26.07;33.19
50672;BME280;46021;55.882;37.654;2023-07-09T12:40:13;98885.00;;;26.15;33.70
50672;BME280;46021;55.882;37.654;2023-07-09T12:42:43;98885.31;;;26.36;33.57
50672;BME280;46021;55.882;37.654;2023-07-09T12:45:16;98879.59;;;26.64;33.66
50672;BME280;46021;55.882;37.654;2023-07-09T12:47:45;98893.31;;;27.00;33.34
50672;BME280;46021;55.882;37.654;2023-07-09T12:50:27;98881.03;;;27.14;32.67
50672;BME280;46021;55.882;37.654;2023-07-09T12:53:03;98876.72;;;27.13;33.10
50672;BME280;46021;55.882;37.654;2023-07-09T12:55:38;98876.19;;;27.18;33.71
50672;BME280;46021;55.882;37.654;2023-07-09T12:58:11;98867.97;;;27.28;33.16
50672;BME280;46021;55.882;37.654;2023-07-09T13:00:41;98874.59;;;27.40;32.92
50672;BME280;46021;55.882;37.654;2023-07-09T13:03:13;98871.13;;;27.31;33.10
50672;BME280;46021;55.882;37.654;2023-07-09T13:05:52;98871.53;;;27.12;33.19
50672;BME280;46021;55.882;37.654;2023-07-09T13:08:19;98872.31;;;26.89;33.08
50672;BME280;46021;55.882;37.654;2023-07-09T13:10:47;98874.66;;;26.84;33.17
50672;BME280;46021;55.882;37.654;2023-07-09T13:13:19;98871.13;;;26.92;33.57